createdAt,value
2018-04-02T00:01:33.000Z,62.30
2018-04-02T00:04:02.385Z,61.90
2018-04-02T00:06:31.476Z,60.80
2018-04-02T00:09:00.536Z,61.50
2018-04-02T00:11:29.558Z,61.90
2018-04-02T00:13:58.688Z,61.70
2018-04-02T00:16:27.715Z,62.30
2018-04-02T00:18:57.526Z,61.70
2018-04-02T00:21:26.601Z,61.60
2018-04-02T00:23:56.427Z,61.60
2018-04-02T00:26:25.714Z,61.50
2018-04-02T00:28:55.536Z,62.20
2018-04-02T00:31:24.600Z,61.50
2018-04-02T00:33:53.664Z,61.40
2018-04-02T00:36:22.911Z,61.70
2018-04-02T00:38:52.234Z,61.80
2018-04-02T00:41:21.262Z,62.00
2018-04-02T00:43:50.340Z,62.20
2018-04-02T00:46:19.355Z,62.30
2018-04-02T00:48:48.406Z,62.60
2018-04-02T00:51:17.459Z,62.70
2018-04-02T00:53:46.472Z,63.10
2018-04-02T00:56:16.248Z,63.00
2018-04-02T00:58:45.327Z,63.00
2018-04-02T01:01:14.343Z,63.20
2018-04-02T01:03:43.355Z,63.80
2018-04-02T01:06:14.077Z,63.30
2018-04-02T01:08:43.094Z,63.30
2018-04-02T01:11:12.138Z,63.30
2018-04-02T01:13:41.468Z,63.40
2018-04-02T01:16:10.470Z,63.40
2018-04-02T01:18:40.274Z,63.50
2018-04-02T01:21:10.044Z,64.20
2018-04-02T01:23:39.082Z,63.50
2018-04-02T01:26:08.889Z,63.60
2018-04-02T01:28:37.953Z,63.70
2018-04-02T01:31:06.997Z,63.60
2018-04-02T01:33:36.007Z,63.50
2018-04-02T01:36:05.061Z,63.50
2018-04-02T01:38:34.827Z,63.80
2018-04-02T01:41:03.861Z,63.60
2018-04-02T01:43:33.622Z,65.30
2018-04-02T01:46:02.677Z,64.50
2018-04-02T01:48:31.681Z,64.70
2018-04-02T01:51:00.706Z,65.00
2018-04-02T01:53:29.787Z,65.20
2018-04-02T01:55:58.841Z,65.50
2018-04-02T01:58:28.614Z,65.50
2018-04-02T02:00:57.663Z,65.50
2018-04-02T02:03:26.689Z,65.20
2018-04-02T02:05:55.744Z,65.00
2018-04-02T02:08:24.754Z,64.70
2018-04-02T02:10:53.807Z,64.50
2018-04-02T02:13:23.579Z,64.00
2018-04-02T02:15:52.631Z,63.90
2018-04-02T02:18:21.631Z,63.90
2018-04-02T02:20:50.751Z,63.80
2018-04-02T02:23:19.765Z,63.70
2018-04-02T02:25:48.822Z,63.60
2018-04-02T02:28:17.822Z,63.50
2018-04-02T02:30:46.818Z,63.40
2018-04-02T02:33:15.875Z,63.50
2018-04-02T02:35:45.639Z,63.20
2018-04-02T02:38:14.678Z,63.10
2018-04-02T02:40:43.688Z,63.00
2018-04-02T02:43:12.716Z,63.40
2018-04-02T02:45:41.735Z,64.00
2018-04-02T02:48:11.524Z,65.80
2018-04-02T02:50:40.529Z,65.80
2018-04-02T02:53:09.587Z,65.90
2018-04-02T02:55:38.585Z,65.60
2018-04-02T02:58:07.636Z,65.80
2018-04-02T03:00:36.641Z,66.60
2018-04-02T03:03:05.699Z,67.30
2018-04-02T03:05:34.698Z,68.00
2018-04-02T03:08:04.502Z,67.70
2018-04-02T03:10:33.506Z,67.60
2018-04-02T03:13:03.341Z,66.90
2018-04-02T03:15:32.338Z,66.70
2018-04-02T03:18:01.334Z,66.40
2018-04-02T03:20:30.372Z,66.00
2018-04-02T03:22:59.362Z,65.80
2018-04-02T03:25:28.398Z,66.20
2018-04-02T03:27:57.413Z,66.70
2018-04-02T03:30:26.506Z,66.50
2018-04-02T03:32:55.522Z,66.30
2018-04-02T03:35:24.561Z,66.00
2018-04-02T03:37:53.566Z,65.70
2018-04-02T03:40:22.604Z,65.60
2018-04-02T03:42:51.598Z,65.80
2018-04-02T03:45:20.642Z,66.00
2018-04-02T03:47:49.678Z,66.00
2018-04-02T03:50:18.714Z,66.60
2018-04-02T03:52:48.483Z,66.10
2018-04-02T03:55:17.906Z,66.10
2018-04-02T03:57:46.905Z,65.80
2018-04-02T04:00:16.730Z,65.20
2018-04-02T04:02:45.732Z,65.20
2018-04-02T04:05:14.731Z,65.10
2018-04-02T04:07:43.762Z,65.30
2018-04-02T04:10:12.769Z,65.40
2018-04-02T04:12:41.827Z,66.00
2018-04-02T04:15:10.830Z,66.30
2018-04-02T04:17:39.831Z,66.50
2018-04-02T04:20:08.856Z,66.30
2018-04-02T04:22:38.634Z,65.70
2018-04-02T04:25:07.635Z,65.70
2018-04-02T04:27:36.691Z,66.00
2018-04-02T04:30:05.699Z,66.40
2018-04-02T04:32:34.703Z,66.60
2018-04-02T04:35:03.753Z,66.50
2018-04-02T04:37:32.802Z,66.30
2018-04-02T04:40:01.802Z,66.20
2018-04-02T04:42:31.635Z,65.70
2018-04-02T04:45:01.395Z,65.60
2018-04-02T04:47:30.406Z,65.60
2018-04-02T04:49:59.445Z,65.60
2018-04-02T04:52:28.454Z,65.70
2018-04-02T04:54:57.454Z,65.70
2018-04-02T04:57:26.507Z,65.60
2018-04-02T04:59:55.550Z,65.50
2018-04-02T05:02:24.549Z,65.30
2018-04-02T05:04:53.604Z,65.20
2018-04-02T05:07:22.606Z,65.30
2018-04-02T05:09:51.650Z,65.30
2018-04-02T05:12:21.455Z,65.60
2018-04-02T05:14:50.512Z,65.50
2018-04-02T05:17:19.745Z,65.50
2018-04-02T05:19:48.794Z,65.50
2018-04-02T05:22:17.789Z,65.70
2018-04-02T05:24:46.841Z,65.50
2018-04-02T05:27:16.606Z,65.60
2018-04-02T05:29:45.659Z,65.50
2018-04-02T05:32:14.686Z,65.50
2018-04-02T05:34:43.713Z,65.40
2018-04-02T05:37:13.483Z,66.10
2018-04-02T05:39:42.528Z,65.40
2018-04-02T05:42:11.529Z,65.60
2018-04-02T05:44:40.570Z,65.90
2018-04-02T05:47:09.618Z,65.80
2018-04-02T05:49:38.651Z,65.60
2018-04-02T05:52:07.699Z,65.40
2018-04-02T05:54:37.460Z,65.60
2018-04-02T05:57:06.515Z,65.50
2018-04-02T05:59:35.573Z,65.80
2018-04-02T06:02:04.586Z,66.10
2018-04-02T06:04:34.409Z,66.20
2018-04-02T06:07:03.426Z,66.20
2018-04-02T06:09:33.509Z,66.30
2018-04-02T06:12:02.521Z,66.50
2018-04-02T06:14:31.526Z,66.30
2018-04-02T06:17:00.567Z,66.20
2018-04-02T06:19:29.577Z,66.00
2018-04-02T06:21:59.389Z,66.00
2018-04-02T06:24:28.399Z,65.90
2018-04-02T06:26:57.435Z,65.70
2018-04-02T06:29:26.462Z,65.00
2018-04-02T06:31:56.260Z,65.70
2018-04-02T06:34:25.279Z,65.70
2018-04-02T06:36:54.390Z,66.30
2018-04-02T06:39:23.335Z,65.10
2018-04-02T06:41:52.390Z,64.70
2018-04-02T06:44:21.409Z,63.20
2018-04-02T06:46:50.422Z,63.10
2018-04-02T06:49:19.454Z,62.90
2018-04-02T06:51:48.452Z,62.50
2018-04-02T06:54:17.514Z,62.10
2018-04-02T06:56:47.348Z,61.40
2018-04-02T06:59:16.346Z,61.30
2018-04-02T07:01:45.402Z,60.30
2018-04-02T07:04:15.188Z,59.80
2018-04-02T07:06:44.328Z,59.60
2018-04-02T07:09:13.324Z,59.60
2018-04-02T07:11:42.333Z,61.40
2018-04-02T07:14:11.391Z,60.40
2018-04-02T07:16:40.416Z,59.60
2018-04-02T07:19:09.533Z,59.70
2018-04-02T07:21:38.591Z,59.50
2018-04-02T07:24:07.653Z,59.00
2018-04-02T07:26:36.672Z,58.40
2018-04-02T07:29:06.590Z,56.70
2018-04-02T07:31:35.591Z,56.70
2018-04-02T07:34:04.636Z,57.50
2018-04-02T07:36:33.666Z,56.40
2018-04-02T07:39:02.722Z,57.60
2018-04-02T07:41:31.731Z,55.00
2018-04-02T07:44:00.798Z,55.30
2018-04-02T07:46:30.682Z,54.90
2018-04-02T07:49:01.205Z,53.90
2018-04-02T07:51:30.228Z,53.10
2018-04-02T07:53:59.257Z,52.30
2018-04-02T07:56:28.320Z,50.20
2018-04-02T07:58:57.398Z,49.40
2018-04-02T08:01:27.254Z,49.60
2018-04-02T08:03:56.390Z,49.50
2018-04-02T08:06:25.405Z,48.80
2018-04-02T08:08:54.459Z,47.80
2018-04-02T08:11:23.487Z,46.30
2018-04-02T08:13:52.539Z,46.40
2018-04-02T08:16:21.557Z,43.80
2018-04-02T08:18:50.574Z,42.80
2018-04-02T08:21:19.696Z,42.10
2018-04-02T08:23:48.674Z,41.20
2018-04-02T08:26:17.697Z,39.80
2018-04-02T08:28:47.534Z,38.20
2018-04-02T08:31:16.539Z,37.80
2018-04-02T08:33:45.565Z,37.20
2018-04-02T08:36:14.627Z,37.60
2018-04-02T08:38:43.673Z,34.40
2018-04-02T08:41:12.760Z,31.30
2018-04-02T08:43:41.772Z,31.60
2018-04-02T08:46:11.545Z,32.60
2018-04-02T08:48:40.602Z,32.50
2018-04-02T08:51:09.614Z,30.50
2018-04-02T08:53:38.645Z,30.70
2018-04-02T08:56:07.714Z,31.10
2018-04-02T08:58:36.738Z,31.90
2018-04-02T09:01:05.814Z,30.20
2018-04-02T09:03:34.833Z,29.30
2018-04-02T09:06:03.876Z,28.60
2018-04-02T09:08:32.908Z,29.20
2018-04-02T09:11:01.926Z,31.30
2018-04-02T09:13:31.019Z,31.70
2018-04-02T09:16:00.032Z,24.30
2018-04-02T09:18:29.050Z,26.00
2018-04-02T09:20:58.090Z,32.20
2018-04-02T09:23:27.112Z,31.50
2018-04-02T09:25:56.129Z,29.80
2018-04-02T09:28:25.182Z,31.60
2018-04-02T09:30:54.200Z,29.60
2018-04-02T09:33:23.257Z,29.70
2018-04-02T09:35:52.277Z,29.60
2018-04-02T09:38:21.333Z,28.10
2018-04-02T09:40:50.350Z,28.10
2018-04-02T09:43:20.149Z,25.60
2018-04-02T09:45:49.169Z,25.50
2018-04-02T09:48:18.990Z,27.50
2018-04-02T09:50:47.993Z,27.40
2018-04-02T09:53:17.000Z,28.30
2018-04-02T09:55:49.005Z,29.00
2018-04-02T09:58:21.273Z,29.30
2018-04-02T10:00:50.356Z,27.70
2018-04-02T10:03:19.390Z,27.70
2018-04-02T10:05:49.250Z,27.20
2018-04-02T10:08:18.350Z,27.10
2018-04-02T10:10:47.446Z,25.50
2018-04-02T10:13:16.466Z,25.10
2018-04-02T10:15:45.563Z,24.50
2018-04-02T10:18:15.493Z,25.00
2018-04-02T10:20:46.589Z,24.40
2018-04-02T10:23:15.658Z,23.30
2018-04-02T10:25:44.710Z,23.70
2018-04-02T10:28:15.623Z,22.70
2018-04-02T10:30:44.691Z,22.70
2018-04-02T10:33:13.673Z,22.90
2018-04-02T10:35:42.989Z,22.60
2018-04-02T10:38:12.423Z,23.30
2018-04-02T10:40:43.373Z,22.10
2018-04-02T10:43:13.725Z,20.00
2018-04-02T10:45:42.971Z,18.80
2018-04-02T10:48:11.987Z,19.10
2018-04-02T10:50:41.004Z,19.00
2018-04-02T10:53:12.344Z,18.90
2018-04-02T10:55:42.552Z,19.00
2018-04-02T10:58:11.862Z,18.50
2018-04-02T11:00:41.336Z,17.90
2018-04-02T11:03:10.488Z,18.50
2018-04-02T11:05:39.587Z,18.90
2018-04-02T11:08:08.653Z,18.90
2018-04-02T11:10:37.679Z,17.60
2018-04-02T11:13:06.694Z,18.00
2018-04-02T11:15:35.780Z,17.80
2018-04-02T11:18:04.819Z,18.40
2018-04-02T11:20:34.638Z,18.90
2018-04-02T11:23:03.737Z,18.90
2018-04-02T11:25:32.866Z,19.60
2018-04-02T11:28:01.896Z,18.70
2018-04-02T11:30:30.965Z,19.10
2018-04-02T11:33:00.023Z,18.30
2018-04-02T11:35:29.823Z,18.10
2018-04-02T11:37:58.938Z,18.10
2018-04-02T11:40:28.726Z,18.80
2018-04-02T11:42:57.881Z,18.60
2018-04-02T11:45:26.884Z,18.40
2018-04-02T11:47:55.970Z,17.20
2018-04-02T11:50:25.005Z,17.70
2018-04-02T11:52:54.025Z,17.10
2018-04-02T11:55:23.090Z,17.70
2018-04-02T11:57:52.177Z,18.10
2018-04-02T12:00:21.252Z,17.60
2018-04-02T12:02:50.286Z,17.10
2018-04-02T12:05:19.367Z,17.50
2018-04-02T12:07:48.826Z,17.50
2018-04-02T12:10:18.770Z,18.90
2018-04-02T12:12:47.835Z,18.80
2018-04-02T12:15:17.052Z,18.50
2018-04-02T12:17:46.359Z,18.20
2018-04-02T12:20:15.576Z,17.50
2018-04-02T12:22:45.391Z,18.70
2018-04-02T12:25:14.646Z,18.60
2018-04-02T12:27:44.011Z,18.10
2018-04-02T12:30:13.078Z,18.00
2018-04-02T12:32:42.178Z,17.40
2018-04-02T12:35:11.252Z,18.00
2018-04-02T12:37:40.273Z,17.20
2018-04-02T12:40:09.334Z,16.60
2018-04-02T12:42:38.350Z,16.80
2018-04-02T12:45:07.430Z,17.00
2018-04-02T12:47:36.498Z,15.70
2018-04-02T12:50:05.538Z,16.40
2018-04-02T12:52:34.604Z,15.90
2018-04-02T12:55:03.719Z,15.40
2018-04-02T12:57:32.730Z,14.90
2018-04-02T13:00:01.782Z,14.70
2018-04-02T13:02:33.780Z,14.60
2018-04-02T13:05:03.057Z,15.20
2018-04-02T13:07:32.142Z,14.70
2018-04-02T13:10:01.191Z,13.30
2018-04-02T13:12:30.234Z,13.00
2018-04-02T13:17:34.521Z,12.40
2018-04-02T13:20:03.582Z,13.20
2018-04-02T13:22:32.652Z,13.20
2018-04-02T13:25:50.403Z,12.80
2018-04-02T13:28:24.462Z,12.40
2018-04-02T13:30:54.288Z,11.60
2018-04-02T13:33:23.332Z,11.60
2018-04-02T13:35:52.344Z,12.10
2018-04-02T13:38:21.400Z,11.90
2018-04-02T13:40:50.414Z,10.30
2018-04-02T13:43:19.473Z,12.40
2018-04-02T13:45:48.627Z,12.20
2018-04-02T13:48:17.651Z,12.10
2018-04-02T13:50:47.495Z,12.40
2018-04-02T13:53:16.509Z,12.40
2018-04-02T13:55:45.512Z,12.50
2018-04-02T13:58:14.556Z,12.80
2018-04-02T14:00:43.594Z,13.60
2018-04-02T14:03:12.641Z,12.70
2018-04-02T14:05:41.683Z,12.70
2018-04-02T14:08:10.776Z,13.10
2018-04-02T14:10:39.792Z,12.60
2018-04-02T14:13:08.854Z,12.10
2018-04-02T14:15:37.909Z,11.60
2018-04-02T14:18:06.958Z,11.40
2018-04-02T14:20:35.988Z,11.10
2018-04-02T14:23:05.040Z,11.60
2018-04-02T14:25:34.052Z,11.30
2018-04-02T14:28:03.121Z,10.70
2018-04-02T14:30:32.137Z,11.60
2018-04-02T14:33:01.205Z,11.00
2018-04-02T14:35:30.265Z,10.70
2018-04-02T14:37:59.289Z,11.80
2018-04-02T14:40:28.919Z,11.30
2018-04-02T14:42:57.962Z,11.40
2018-04-02T14:45:27.013Z,12.50
2018-04-02T14:47:56.111Z,12.20
2018-04-02T14:50:25.130Z,13.10
2018-04-02T14:52:54.195Z,13.10
2018-04-02T14:55:23.219Z,13.30
2018-04-02T14:57:52.291Z,14.60
2018-04-02T15:00:21.335Z,15.50
2018-04-02T15:02:50.429Z,16.40
2018-04-02T15:05:19.447Z,16.80
2018-04-02T15:07:48.471Z,17.20
2018-04-02T15:10:17.558Z,17.90
2018-04-02T15:12:46.566Z,17.90
2018-04-02T15:15:15.600Z,17.60
2018-04-02T15:17:44.636Z,17.30
2018-04-02T15:20:13.715Z,18.20
2018-04-02T15:22:42.991Z,17.70
2018-04-02T15:25:12.134Z,18.30
2018-04-02T15:27:41.470Z,18.40
2018-04-02T15:30:11.885Z,17.60
2018-04-02T15:32:43.009Z,17.40
2018-04-02T15:35:12.940Z,15.00
2018-04-02T15:37:42.047Z,15.00
2018-04-02T15:40:12.583Z,15.40
2018-04-02T15:42:42.083Z,15.40
2018-04-02T15:45:11.116Z,13.40
2018-04-02T15:47:40.129Z,13.80
2018-04-02T15:50:09.379Z,13.70
2018-04-02T15:52:38.647Z,14.00
2018-04-02T15:55:09.415Z,13.80
2018-04-02T15:57:39.009Z,13.80
2018-04-02T16:00:08.089Z,14.40
2018-04-02T16:02:37.162Z,15.20
2018-04-02T16:05:06.474Z,15.20
2018-04-02T16:07:38.119Z,15.70
2018-04-02T16:10:08.434Z,16.50
2018-04-02T16:12:37.639Z,16.40
2018-04-02T16:15:06.656Z,17.00
2018-04-02T16:17:36.750Z,17.70
2018-04-02T16:20:05.812Z,17.70
2018-04-02T16:22:34.862Z,17.60
2018-04-02T16:25:05.114Z,17.30
2018-04-02T16:27:34.176Z,17.30
2018-04-02T16:30:03.963Z,17.00
2018-04-02T16:32:33.018Z,17.00
2018-04-02T16:35:02.029Z,17.40
2018-04-02T16:37:31.095Z,17.80
2018-04-02T16:40:00.120Z,18.00
2018-04-02T16:42:29.357Z,18.70
2018-04-02T16:44:59.132Z,18.90
2018-04-02T16:47:28.166Z,18.90
2018-04-02T16:49:58.273Z,19.20
2018-04-02T16:52:27.309Z,19.20
2018-04-02T16:54:56.473Z,19.60
2018-04-02T16:57:25.545Z,19.60
2018-04-02T16:59:54.638Z,19.90
2018-04-02T17:02:23.676Z,20.30
2018-04-02T17:04:52.735Z,20.40
2018-04-02T17:07:21.764Z,20.60
2018-04-02T17:09:50.830Z,20.80
2018-04-02T17:12:19.846Z,20.60
2018-04-02T17:14:48.862Z,21.30
2018-04-02T17:17:17.962Z,22.20
2018-04-02T17:19:47.004Z,23.00
2018-04-02T17:22:16.036Z,27.00
2018-04-02T17:24:45.206Z,26.90
2018-04-02T17:27:14.225Z,28.30
2018-04-02T17:29:43.266Z,30.90
2018-04-02T17:32:12.544Z,32.00
2018-04-02T17:34:41.563Z,33.10
2018-04-02T17:37:10.652Z,32.90
2018-04-02T17:39:39.697Z,33.20
2018-04-02T17:42:08.784Z,33.70
2018-04-02T17:44:37.821Z,33.80
2018-04-02T17:47:06.903Z,33.60
2018-04-02T17:49:36.298Z,33.60
2018-04-02T17:52:05.415Z,33.20
2018-04-02T17:54:34.435Z,34.00
2018-04-02T17:57:03.681Z,34.40
2018-04-02T17:59:32.702Z,34.70
2018-04-02T18:02:01.820Z,34.80
2018-04-02T18:04:30.951Z,34.60
2018-04-02T18:07:01.667Z,34.80
2018-04-02T18:09:31.668Z,35.60
2018-04-02T18:12:01.470Z,36.20
2018-04-02T18:14:30.590Z,36.10
2018-04-02T18:16:59.777Z,36.30
2018-04-02T18:19:29.553Z,36.80
2018-04-02T18:21:58.676Z,36.80
2018-04-02T18:24:27.702Z,37.30
2018-04-02T18:26:56.758Z,37.10
2018-04-02T18:29:26.590Z,38.00
2018-04-02T18:31:55.650Z,37.40
2018-04-02T18:34:24.723Z,39.70
2018-04-02T18:36:53.773Z,39.90
2018-04-02T18:39:22.822Z,39.20
2018-04-02T18:41:51.942Z,39.20
2018-04-02T18:44:21.739Z,40.10
2018-04-02T18:46:50.745Z,40.10
2018-04-02T18:49:20.841Z,39.90
2018-04-02T18:51:50.846Z,40.30
2018-04-02T18:54:20.052Z,40.20
2018-04-02T18:56:49.183Z,42.40
2018-04-02T18:59:18.982Z,41.70
2018-04-02T19:01:51.955Z,41.70
2018-04-02T19:04:21.114Z,44.30
2018-04-02T19:06:50.150Z,44.80
2018-04-02T19:09:19.579Z,43.00
2018-04-02T19:11:49.501Z,34.20
2018-04-02T19:14:18.590Z,34.20
2018-04-02T19:16:47.655Z,39.60
2018-04-02T19:19:16.682Z,39.70
2018-04-02T19:21:45.926Z,46.20
2018-04-02T19:24:14.998Z,45.90
2018-04-02T19:26:44.062Z,45.00
2018-04-02T19:29:13.214Z,45.70
2018-04-02T19:31:42.533Z,45.70
2018-04-02T19:34:11.958Z,44.10
2018-04-02T19:36:40.998Z,44.00
2018-04-02T19:39:11.904Z,44.00
2018-04-02T19:41:41.422Z,44.00
2018-04-02T19:44:10.483Z,44.60
2018-04-02T19:46:39.641Z,45.60
2018-04-02T19:49:08.697Z,45.70
2018-04-02T19:51:38.625Z,44.60
2018-04-02T19:54:07.722Z,45.20
2018-04-02T19:56:36.777Z,45.00
2018-04-02T19:59:06.563Z,45.60
2018-04-02T20:01:35.622Z,45.50
2018-04-02T20:04:04.644Z,45.10
2018-04-02T20:06:33.696Z,44.90
2018-04-02T20:09:02.710Z,45.30
2018-04-02T20:11:31.871Z,44.70
2018-04-02T20:14:01.250Z,44.70
2018-04-02T20:16:30.422Z,45.00
2018-04-02T20:18:59.467Z,44.90
2018-04-02T20:21:28.509Z,45.80
2018-04-02T20:23:57.559Z,45.60
2018-04-02T20:26:26.643Z,45.70
2018-04-02T20:28:55.668Z,45.60
2018-04-02T20:31:24.878Z,45.70
2018-04-02T20:33:53.894Z,45.60
2018-04-02T20:36:22.918Z,45.50
2018-04-02T20:38:51.979Z,45.80
2018-04-02T20:41:21.010Z,45.70
2018-04-02T20:43:50.110Z,46.00
2018-04-02T20:46:19.145Z,46.40
2018-04-02T20:48:48.157Z,45.90
2018-04-02T20:51:17.977Z,45.80
2018-04-02T20:53:47.024Z,45.70
2018-04-02T20:56:16.050Z,45.60
2018-04-02T20:58:45.162Z,45.50
2018-04-02T21:01:14.145Z,45.30
2018-04-02T21:03:43.206Z,45.30
2018-04-02T21:06:12.218Z,46.00
2018-04-02T21:08:41.291Z,47.00
2018-04-02T21:11:10.312Z,47.10
2018-04-02T21:13:39.326Z,47.10
2018-04-02T21:16:08.364Z,46.90
2018-04-02T21:18:37.390Z,47.10
2018-04-02T21:21:06.445Z,46.60
2018-04-02T21:23:36.402Z,46.80
2018-04-02T21:26:05.421Z,46.10
2018-04-02T21:28:34.488Z,46.40
2018-04-02T21:31:03.497Z,46.30
2018-04-02T21:33:33.438Z,46.10
2018-04-02T21:36:02.486Z,46.10
2018-04-02T21:38:31.548Z,45.40
2018-04-02T21:41:00.558Z,45.40
2018-04-02T21:43:29.665Z,45.70
2018-04-02T21:45:59.597Z,46.10
2018-04-02T21:48:28.600Z,46.70
2018-04-02T21:50:57.673Z,46.30
2018-04-02T21:53:26.694Z,46.50
2018-04-02T21:55:55.730Z,46.90
2018-04-02T21:58:24.789Z,46.70
2018-04-02T22:00:53.845Z,46.60
2018-04-02T22:03:22.862Z,46.00
2018-04-02T22:05:51.902Z,45.90
2018-04-02T22:08:20.921Z,46.30
2018-04-02T22:10:50.023Z,46.70
2018-04-02T22:13:19.047Z,46.80
2018-04-02T22:15:48.061Z,47.10
2018-04-02T22:18:17.134Z,46.80
2018-04-02T22:20:46.170Z,47.20
2018-04-02T22:23:15.171Z,47.70
2018-04-02T22:25:44.226Z,47.20
2018-04-02T22:28:16.878Z,47.30
2018-04-02T22:30:45.940Z,47.10
2018-04-02T22:33:15.007Z,46.60
2018-04-02T22:35:44.047Z,46.60
2018-04-02T22:38:13.880Z,47.30
2018-04-02T22:40:42.903Z,47.20
2018-04-02T22:43:11.959Z,47.60
2018-04-02T22:45:40.982Z,47.50
2018-04-02T22:48:10.054Z,47.20
2018-04-02T22:50:39.628Z,47.50
2018-04-02T22:53:08.706Z,48.10
2018-04-02T22:55:37.760Z,48.10
2018-04-02T22:58:07.025Z,47.80
2018-04-02T23:00:36.113Z,48.20
2018-04-02T23:03:05.229Z,48.50
2018-04-02T23:05:34.286Z,48.50
2018-04-02T23:08:03.344Z,48.60
2018-04-02T23:10:32.357Z,49.30
2018-04-02T23:13:01.447Z,50.10
2018-04-02T23:15:30.471Z,51.20
2018-04-02T23:17:59.536Z,51.90
2018-04-02T23:20:28.542Z,52.20
2018-04-02T23:22:57.610Z,51.90
2018-04-02T23:25:26.671Z,51.70
2018-04-02T23:27:55.798Z,51.40
2018-04-02T23:30:25.074Z,51.40
2018-04-02T23:32:54.234Z,51.70
2018-04-02T23:35:23.400Z,51.80
2018-04-02T23:37:53.434Z,51.20
2018-04-02T23:40:22.448Z,50.90
2018-04-02T23:42:51.505Z,52.00
2018-04-02T23:45:20.574Z,52.10
2018-04-02T23:47:49.799Z,52.20
2018-04-02T23:50:19.046Z,52.10
2018-04-02T23:52:48.237Z,52.00
2018-04-02T23:55:17.242Z,51.50
2018-04-02T23:57:46.571Z,50.70
